sensor_id;sensor_type;location;lat;lon;timestamp;temperature;humidity
21425;DHT22;10873;51.132;16.848;2023-02-23T00:00:30;24.60;44.10
21425;DHT22;10873;51.132;16.848;2023-02-23T00:03:12;24.60;44.10
21425;DHT22;10873;51.132;16.848;2023-02-23T00:05:38;24.60;44.00
21425;DHT22;10873;51.132;16.848;2023-02-23T00:08:05;24.50;44.00
21425;DHT22;10873;51.132;16.848;2023-02-23T00:10:32;24.60;44.10
21425;DHT22;10873;51.132;16.848;2023-02-23T00:12:59;24.50;44.10
21425;DHT22;10873;51.132;16.848;2023-02-23T00:15:26;24.50;44.10
21425;DHT22;10873;51.132;16.848;2023-02-23T00:17:53;24.50;44.10
21425;DHT22;10873;51.132;16.848;2023-02-23T00:20:20;24.50;44.00
21425;DHT22;10873;51.132;16.848;2023-02-23T00:22:52;24.50;44.00
21425;DHT22;10873;51.132;16.848;2023-02-23T00:25:18;24.50;44.00
21425;DHT22;10873;51.132;16.848;2023-02-23T00:27:46;24.50;44.00
21425;DHT22;10873;51.132;16.848;2023-02-23T00:30:14;24.50;43.90
21425;DHT22;10873;51.132;16.848;2023-02-23T00:32:39;24.50;43.90
21425;DHT22;10873;51.132;16.848;2023-02-23T00:35:07;24.50;43.80
21425;DHT22;10873;51.132;16.848;2023-02-23T00:37:37;24.50;43.90
21425;DHT22;10873;51.132;16.848;2023-02-23T00:40:04;24.50;43.90
21425;DHT22;10873;51.132;16.848;2023-02-23T00:42:38;24.50;43.90
21425;DHT22;10873;51.132;16.848;2023-02-23T00:45:07;24.50;43.90
21425;DHT22;10873;51.132;16.848;2023-02-23T00:47:35;24.50;43.80
21425;DHT22;10873;51.132;16.848;2023-02-23T00:50:03;24.50;43.80
21425;DHT22;10873;51.132;16.848;2023-02-23T00:52:30;24.50;43.80
21425;DHT22;10873;51.132;16.848;2023-02-23T00:54:55;24.50;43.80
21425;DHT22;10873;51.132;16.848;2023-02-23T00:57:22;24.50;43.80
21425;DHT22;10873;51.132;16.848;2023-02-23T00:59:48;24.50;43.80
21425;DHT22;10873;51.132;16.848;2023-02-23T01:02:15;24.50;43.80
21425;DHT22;10873;51.132;16.848;2023-02-23T01:04:41;24.50;43.80
21425;DHT22;10873;51.132;16.848;2023-02-23T01:07:07;24.40;43.80
21425;DHT22;10873;51.132;16.848;2023-02-23T01:09:33;24.50;43.90
21425;DHT22;10873;51.132;16.848;2023-02-23T01:12:00;24.50;43.90
21425;DHT22;10873;51.132;16.848;2023-02-23T01:14:26;24.50;43.90
21425;DHT22;10873;51.132;16.848;2023-02-23T01:16:53;24.50;43.80
21425;DHT22;10873;51.132;16.848;2023-02-23T01:19:20;24.50;43.80
21425;DHT22;10873;51.132;16.848;2023-02-23T01:21:47;24.40;43.70
21425;DHT22;10873;51.132;16.848;2023-02-23T01:24:12;24.50;43.70
21425;DHT22;10873;51.132;16.848;2023-02-23T01:26:42;24.40;43.60
21425;DHT22;10873;51.132;16.848;2023-02-23T01:29:10;24.40;43.60
21425;DHT22;10873;51.132;16.848;2023-02-23T01:31:38;24.40;43.60
21425;DHT22;10873;51.132;16.848;2023-02-23T01:34:05;24.40;43.70
21425;DHT22;10873;51.132;16.848;2023-02-23T01:36:35;24.50;43.70
21425;DHT22;10873;51.132;16.848;2023-02-23T01:39:01;24.40;43.60
21425;DHT22;10873;51.132;16.848;2023-02-23T01:41:31;24.40;43.60
21425;DHT22;10873;51.132;16.848;2023-02-23T01:43:58;24.50;43.60
21425;DHT22;10873;51.132;16.848;2023-02-23T01:46:25;24.50;43.50
21425;DHT22;10873;51.132;16.848;2023-02-23T01:48:52;24.50;43.50
21425;DHT22;10873;51.132;16.848;2023-02-23T01:51:24;24.50;43.50
21425;DHT22;10873;51.132;16.848;2023-02-23T01:53:56;24.50;43.50
21425;DHT22;10873;51.132;16.848;2023-02-23T01:56:27;24.40;43.40
21425;DHT22;10873;51.132;16.848;2023-02-23T01:58:56;24.50;43.50
21425;DHT22;10873;51.132;16.848;2023-02-23T02:01:23;24.40;44.10
21425;DHT22;10873;51.132;16.848;2023-02-23T02:03:52;24.40;43.40
21425;DHT22;10873;51.132;16.848;2023-02-23T02:06:22;24.50;43.50
21425;DHT22;10873;51.132;16.848;2023-02-23T02:08:51;24.50;43.50
21425;DHT22;10873;51.132;16.848;2023-02-23T02:11:22;24.40;43.40
21425;DHT22;10873;51.132;16.848;2023-02-23T02:13:58;24.40;43.40
21425;DHT22;10873;51.132;16.848;2023-02-23T02:22:43;24.50;43.40
21425;DHT22;10873;51.132;16.848;2023-02-23T02:25:48;24.40;43.20
21425;DHT22;10873;51.132;16.848;2023-02-23T02:28:52;24.40;43.30
21425;DHT22;10873;51.132;16.848;2023-02-23T02:31:48;24.40;43.20
21425;DHT22;10873;51.132;16.848;2023-02-23T02:37:37;24.40;43.30
21425;DHT22;10873;51.132;16.848;2023-02-23T02:40:11;24.40;43.30
21425;DHT22;10873;51.132;16.848;2023-02-23T02:43:00;24.40;43.30
21425;DHT22;10873;51.132;16.848;2023-02-23T02:45:41;24.40;43.20
21425;DHT22;10873;51.132;16.848;2023-02-23T02:48:16;24.30;43.20
21425;DHT22;10873;51.132;16.848;2023-02-23T02:50:48;24.40;43.20
21425;DHT22;10873;51.132;16.848;2023-02-23T02:53:22;24.40;43.10
21425;DHT22;10873;51.132;16.848;2023-02-23T02:55:53;24.30;43.00
21425;DHT22;10873;51.132;16.848;2023-02-23T02:58:21;24.30;43.00
21425;DHT22;10873;51.132;16.848;2023-02-23T03:00:50;24.30;42.90
21425;DHT22;10873;51.132;16.848;2023-02-23T03:03:37;24.30;42.90
21425;DHT22;10873;51.132;16.848;2023-02-23T03:06:25;24.30;42.90
21425;DHT22;10873;51.132;16.848;2023-02-23T03:09:23;24.30;42.90
21425;DHT22;10873;51.132;16.848;2023-02-23T03:12:15;24.30;42.80
21425;DHT22;10873;51.132;16.848;2023-02-23T03:15:11;24.30;42.80
21425;DHT22;10873;51.132;16.848;2023-02-23T03:18:05;24.30;42.70
21425;DHT22;10873;51.132;16.848;2023-02-23T03:20:58;24.30;42.70
21425;DHT22;10873;51.132;16.848;2023-02-23T03:23:55;24.30;42.60
21425;DHT22;10873;51.132;16.848;2023-02-23T03:26:46;24.30;42.50
21425;DHT22;10873;51.132;16.848;2023-02-23T03:29:39;24.30;42.50
21425;DHT22;10873;51.132;16.848;2023-02-23T03:32:30;24.30;42.40
21425;DHT22;10873;51.132;16.848;2023-02-23T03:35:20;24.30;42.40
21425;DHT22;10873;51.132;16.848;2023-02-23T03:38:10;24.30;42.30
21425;DHT22;10873;51.132;16.848;2023-02-23T03:40:57;24.30;42.30
21425;DHT22;10873;51.132;16.848;2023-02-23T03:43:48;24.30;42.30
21425;DHT22;10873;51.132;16.848;2023-02-23T03:46:35;24.30;42.30
21425;DHT22;10873;51.132;16.848;2023-02-23T03:49:23;24.30;42.20
21425;DHT22;10873;51.132;16.848;2023-02-23T03:52:15;24.30;42.20
21425;DHT22;10873;51.132;16.848;2023-02-23T03:55:03;24.30;42.20
21425;DHT22;10873;51.132;16.848;2023-02-23T03:57:51;24.30;42.10
21425;DHT22;10873;51.132;16.848;2023-02-23T04:00:41;24.30;42.00
21425;DHT22;10873;51.132;16.848;2023-02-23T04:03:31;24.30;42.00
21425;DHT22;10873;51.132;16.848;2023-02-23T04:06:18;24.30;41.90
21425;DHT22;10873;51.132;16.848;2023-02-23T04:09:06;24.30;41.90
21425;DHT22;10873;51.132;16.848;2023-02-23T04:11:55;24.30;41.90
21425;DHT22;10873;51.132;16.848;2023-02-23T04:14:44;24.30;42.00
21425;DHT22;10873;51.132;16.848;2023-02-23T04:17:15;24.30;41.90
21425;DHT22;10873;51.132;16.848;2023-02-23T04:19:48;24.30;41.90
21425;DHT22;10873;51.132;16.848;2023-02-23T04:22:14;24.30;41.90
21425;DHT22;10873;51.132;16.848;2023-02-23T04:24:40;24.30;41.90
21425;DHT22;10873;51.132;16.848;2023-02-23T04:27:06;24.30;41.90
21425;DHT22;10873;51.132;16.848;2023-02-23T04:29:32;24.30;41.90
21425;DHT22;10873;51.132;16.848;2023-02-23T04:31:58;24.30;41.90
21425;DHT22;10873;51.132;16.848;2023-02-23T04:34:25;24.40;42.00
21425;DHT22;10873;51.132;16.848;2023-02-23T04:36:51;24.30;41.90
21425;DHT22;10873;51.132;16.848;2023-02-23T04:39:18;24.30;41.90
21425;DHT22;10873;51.132;16.848;2023-02-23T04:41:44;24.30;41.90
21425;DHT22;10873;51.132;16.848;2023-02-23T04:44:10;24.30;41.90
21425;DHT22;10873;51.132;16.848;2023-02-23T04:46:36;24.30;41.90
21425;DHT22;10873;51.132;16.848;2023-02-23T04:49:02;24.30;41.90
21425;DHT22;10873;51.132;16.848;2023-02-23T04:51:30;24.30;41.90
21425;DHT22;10873;51.132;16.848;2023-02-23T04:53:58;24.30;41.90
21425;DHT22;10873;51.132;16.848;2023-02-23T04:56:24;24.30;41.90
21425;DHT22;10873;51.132;16.848;2023-02-23T04:58:50;24.30;41.90
21425;DHT22;10873;51.132;16.848;2023-02-23T05:01:16;24.30;41.90
21425;DHT22;10873;51.132;16.848;2023-02-23T05:03:43;24.30;41.90
21425;DHT22;10873;51.132;16.848;2023-02-23T05:06:08;24.30;41.90
21425;DHT22;10873;51.132;16.848;2023-02-23T05:08:37;24.30;42.30
21425;DHT22;10873;51.132;16.848;2023-02-23T05:11:05;24.30;43.20
21425;DHT22;10873;51.132;16.848;2023-02-23T05:13:31;24.30;44.90
21425;DHT22;10873;51.132;16.848;2023-02-23T05:15:57;24.30;45.20
21425;DHT22;10873;51.132;16.848;2023-02-23T05:18:24;24.20;45.00
21425;DHT22;10873;51.132;16.848;2023-02-23T05:20:51;24.30;45.00
21425;DHT22;10873;51.132;16.848;2023-02-23T05:23:17;24.20;44.80
21425;DHT22;10873;51.132;16.848;2023-02-23T05:25:45;24.20;44.60
21425;DHT22;10873;51.132;16.848;2023-02-23T05:28:11;24.20;44.40
21425;DHT22;10873;51.132;16.848;2023-02-23T05:30:37;24.20;44.20
21425;DHT22;10873;51.132;16.848;2023-02-23T05:33:03;24.20;44.10
21425;DHT22;10873;51.132;16.848;2023-02-23T05:35:29;24.20;43.90
21425;DHT22;10873;51.132;16.848;2023-02-23T05:37:55;24.20;43.70
21425;DHT22;10873;51.132;16.848;2023-02-23T05:40:21;24.20;43.70
21425;DHT22;10873;51.132;16.848;2023-02-23T05:42:49;24.20;43.50
21425;DHT22;10873;51.132;16.848;2023-02-23T05:45:15;24.20;43.50
21425;DHT22;10873;51.132;16.848;2023-02-23T05:47:41;24.20;43.30
21425;DHT22;10873;51.132;16.848;2023-02-23T05:50:09;24.10;43.20
21425;DHT22;10873;51.132;16.848;2023-02-23T05:52:37;24.10;43.20
21425;DHT22;10873;51.132;16.848;2023-02-23T05:55:05;24.10;43.10
21425;DHT22;10873;51.132;16.848;2023-02-23T05:57:31;24.10;43.00
21425;DHT22;10873;51.132;16.848;2023-02-23T05:59:58;24.10;43.00
21425;DHT22;10873;51.132;16.848;2023-02-23T06:02:25;24.10;42.90
21425;DHT22;10873;51.132;16.848;2023-02-23T06:04:50;24.10;42.80
21425;DHT22;10873;51.132;16.848;2023-02-23T06:07:17;24.10;42.70
21425;DHT22;10873;51.132;16.848;2023-02-23T06:09:43;24.10;42.70
21425;DHT22;10873;51.132;16.848;2023-02-23T06:12:09;24.10;42.70
21425;DHT22;10873;51.132;16.848;2023-02-23T06:14:35;24.10;42.60
21425;DHT22;10873;51.132;16.848;2023-02-23T06:17:02;24.10;42.50
21425;DHT22;10873;51.132;16.848;2023-02-23T06:19:28;24.10;42.50
21425;DHT22;10873;51.132;16.848;2023-02-23T06:21:56;24.10;42.40
21425;DHT22;10873;51.132;16.848;2023-02-23T06:24:22;24.10;42.30
21425;DHT22;10873;51.132;16.848;2023-02-23T06:26:49;24.10;42.30
21425;DHT22;10873;51.132;16.848;2023-02-23T06:29:15;24.10;42.30
21425;DHT22;10873;51.132;16.848;2023-02-23T06:31:42;24.10;42.20
21425;DHT22;10873;51.132;16.848;2023-02-23T06:34:09;24.10;42.20
21425;DHT22;10873;51.132;16.848;2023-02-23T06:36:36;24.00;42.20
21425;DHT22;10873;51.132;16.848;2023-02-23T06:39:03;24.00;42.20
21425;DHT22;10873;51.132;16.848;2023-02-23T06:41:29;24.00;42.20
21425;DHT22;10873;51.132;16.848;2023-02-23T06:43:57;24.00;42.20
21425;DHT22;10873;51.132;16.848;2023-02-23T06:46:23;24.00;42.20
21425;DHT22;10873;51.132;16.848;2023-02-23T06:48:49;24.00;42.20
21425;DHT22;10873;51.132;16.848;2023-02-23T06:51:20;24.00;42.10
21425;DHT22;10873;51.132;16.848;2023-02-23T06:53:46;24.00;42.10
21425;DHT22;10873;51.132;16.848;2023-02-23T06:56:12;24.00;42.00
21425;DHT22;10873;51.132;16.848;2023-02-23T06:58:39;24.00;41.90
21425;DHT22;10873;51.132;16.848;2023-02-23T07:01:06;24.00;41.90
21425;DHT22;10873;51.132;16.848;2023-02-23T07:03:31;24.00;41.90
21425;DHT22;10873;51.132;16.848;2023-02-23T07:05:58;24.00;41.90
21425;DHT22;10873;51.132;16.848;2023-02-23T07:08:25;24.00;41.90
21425;DHT22;10873;51.132;16.848;2023-02-23T07:10:52;24.00;42.00
21425;DHT22;10873;51.132;16.848;2023-02-23T07:13:18;23.90;42.00
21425;DHT22;10873;51.132;16.848;2023-02-23T07:15:45;23.90;42.10
21425;DHT22;10873;51.132;16.848;2023-02-23T07:18:11;24.00;42.10
21425;DHT22;10873;51.132;16.848;2023-02-23T07:20:37;23.90;42.10
21425;DHT22;10873;51.132;16.848;2023-02-23T07:23:03;24.00;42.30
21425;DHT22;10873;51.132;16.848;2023-02-23T07:25:31;24.00;42.40
21425;DHT22;10873;51.132;16.848;2023-02-23T07:27:57;24.00;42.40
21425;DHT22;10873;51.132;16.848;2023-02-23T07:30:24;24.00;42.40
21425;DHT22;10873;51.132;16.848;2023-02-23T07:32:50;24.00;42.50
21425;DHT22;10873;51.132;16.848;2023-02-23T07:35:16;23.90;42.50
21425;DHT22;10873;51.132;16.848;2023-02-23T07:37:42;24.00;42.70
21425;DHT22;10873;51.132;16.848;2023-02-23T07:40:10;23.90;42.70
21425;DHT22;10873;51.132;16.848;2023-02-23T07:42:37;23.90;42.80
21425;DHT22;10873;51.132;16.848;2023-02-23T07:45:05;23.90;42.90
21425;DHT22;10873;51.132;16.848;2023-02-23T07:47:31;23.90;42.90
21425;DHT22;10873;51.132;16.848;2023-02-23T07:49:57;23.90;43.00
21425;DHT22;10873;51.132;16.848;2023-02-23T07:52:24;23.90;43.00
21425;DHT22;10873;51.132;16.848;2023-02-23T07:54:51;23.90;43.00
21425;DHT22;10873;51.132;16.848;2023-02-23T07:57:17;24.00;43.10
21425;DHT22;10873;51.132;16.848;2023-02-23T07:59:45;23.90;43.00
21425;DHT22;10873;51.132;16.848;2023-02-23T08:02:12;24.00;43.10
21425;DHT22;10873;51.132;16.848;2023-02-23T08:04:38;24.00;43.10
21425;DHT22;10873;51.132;16.848;2023-02-23T08:07:05;24.00;43.00
21425;DHT22;10873;51.132;16.848;2023-02-23T08:09:31;24.00;43.00
21425;DHT22;10873;51.132;16.848;2023-02-23T08:11:59;24.00;42.90
21425;DHT22;10873;51.132;16.848;2023-02-23T08:14:26;24.00;42.80
21425;DHT22;10873;51.132;16.848;2023-02-23T08:16:53;24.00;42.90
21425;DHT22;10873;51.132;16.848;2023-02-23T08:19:19;24.00;42.90
21425;DHT22;10873;51.132;16.848;2023-02-23T08:21:48;24.00;43.00
21425;DHT22;10873;51.132;16.848;2023-02-23T08:24:14;24.00;43.10
21425;DHT22;10873;51.132;16.848;2023-02-23T08:26:40;24.00;43.20
21425;DHT22;10873;51.132;16.848;2023-02-23T08:29:07;24.00;43.20
21425;DHT22;10873;51.132;16.848;2023-02-23T08:31:33;24.00;43.20
21425;DHT22;10873;51.132;16.848;2023-02-23T08:34:01;24.00;43.20
21425;DHT22;10873;51.132;16.848;2023-02-23T08:36:27;24.00;43.30
21425;DHT22;10873;51.132;16.848;2023-02-23T08:38:54;24.00;43.30
21425;DHT22;10873;51.132;16.848;2023-02-23T08:41:20;24.00;43.30
21425;DHT22;10873;51.132;16.848;2023-02-23T08:43:46;24.00;43.30
21425;DHT22;10873;51.132;16.848;2023-02-23T08:46:13;24.10;43.40
21425;DHT22;10873;51.132;16.848;2023-02-23T08:48:41;24.10;43.50
21425;DHT22;10873;51.132;16.848;2023-02-23T08:51:08;24.10;43.50
21425;DHT22;10873;51.132;16.848;2023-02-23T08:53:35;24.10;43.50
21425;DHT22;10873;51.132;16.848;2023-02-23T08:56:02;24.10;43.50
21425;DHT22;10873;51.132;16.848;2023-02-23T08:58:30;24.00;43.50
21425;DHT22;10873;51.132;16.848;2023-02-23T09:00:56;24.10;43.70
21425;DHT22;10873;51.132;16.848;2023-02-23T09:03:23;24.00;43.70
21425;DHT22;10873;51.132;16.848;2023-02-23T09:05:50;24.00;43.70
21425;DHT22;10873;51.132;16.848;2023-02-23T09:08:18;24.00;43.80
21425;DHT22;10873;51.132;16.848;2023-02-23T09:10:44;24.10;43.90
21425;DHT22;10873;51.132;16.848;2023-02-23T09:13:11;24.10;43.90
21425;DHT22;10873;51.132;16.848;2023-02-23T09:15:37;24.10;43.90
21425;DHT22;10873;51.132;16.848;2023-02-23T09:18:04;24.10;43.90
21425;DHT22;10873;51.132;16.848;2023-02-23T09:20:31;24.10;43.80
21425;DHT22;10873;51.132;16.848;2023-02-23T09:22:57;24.10;43.80
21425;DHT22;10873;51.132;16.848;2023-02-23T09:25:25;24.10;43.80
21425;DHT22;10873;51.132;16.848;2023-02-23T09:27:53;24.10;43.90
21425;DHT22;10873;51.132;16.848;2023-02-23T09:30:21;24.10;43.90
21425;DHT22;10873;51.132;16.848;2023-02-23T09:32:48;24.10;44.00
21425;DHT22;10873;51.132;16.848;2023-02-23T09:35:15;24.10;44.10
21425;DHT22;10873;51.132;16.848;2023-02-23T09:37:43;24.10;44.10
21425;DHT22;10873;51.132;16.848;2023-02-23T09:40:14;24.20;44.20
21425;DHT22;10873;51.132;16.848;2023-02-23T09:42:45;24.20;44.10
21425;DHT22;10873;51.132;16.848;2023-02-23T09:45:20;24.20;44.20
21425;DHT22;10873;51.132;16.848;2023-02-23T09:48:05;24.20;44.20
21425;DHT22;10873;51.132;16.848;2023-02-23T09:50:35;24.20;44.20
21425;DHT22;10873;51.132;16.848;2023-02-23T09:53:05;24.20;44.10
21425;DHT22;10873;51.132;16.848;2023-02-23T09:55:32;24.20;44.10
21425;DHT22;10873;51.132;16.848;2023-02-23T09:58:06;24.20;44.20
21425;DHT22;10873;51.132;16.848;2023-02-23T10:00:36;24.20;44.20
21425;DHT22;10873;51.132;16.848;2023-02-23T10:03:11;24.20;44.30
21425;DHT22;10873;51.132;16.848;2023-02-23T10:05:44;24.20;44.40
21425;DHT22;10873;51.132;16.848;2023-02-23T10:08:36;24.20;44.30
21425;DHT22;10873;51.132;16.848;2023-02-23T10:11:12;24.20;44.50
21425;DHT22;10873;51.132;16.848;2023-02-23T10:13:50;24.20;44.60
21425;DHT22;10873;51.132;16.848;2023-02-23T10:16:23;24.20;44.70
21425;DHT22;10873;51.132;16.848;2023-02-23T10:18:59;24.20;44.70
21425;DHT22;10873;51.132;16.848;2023-02-23T10:21:33;24.20;44.70
21425;DHT22;10873;51.132;16.848;2023-02-23T10:24:04;24.20;44.80
21425;DHT22;10873;51.132;16.848;2023-02-23T10:26:38;24.20;44.80
21425;DHT22;10873;51.132;16.848;2023-02-23T10:29:20;24.30;44.80
21425;DHT22;10873;51.132;16.848;2023-02-23T10:31:48;24.30;44.80
21425;DHT22;10873;51.132;16.848;2023-02-23T10:34:17;24.30;44.80
21425;DHT22;10873;51.132;16.848;2023-02-23T10:36:46;24.30;44.90
21425;DHT22;10873;51.132;16.848;2023-02-23T10:39:15;24.30;44.90
21425;DHT22;10873;51.132;16.848;2023-02-23T10:41:41;24.30;44.90
21425;DHT22;10873;51.132;16.848;2023-02-23T10:44:19;24.30;45.00
21425;DHT22;10873;51.132;16.848;2023-02-23T10:46:50;24.30;45.00
21425;DHT22;10873;51.132;16.848;2023-02-23T10:49:20;24.30;45.00
21425;DHT22;10873;51.132;16.848;2023-02-23T10:51:47;24.30;45.10
21425;DHT22;10873;51.132;16.848;2023-02-23T10:54:33;24.30;45.20
21425;DHT22;10873;51.132;16.848;2023-02-23T10:56:59;24.30;45.50
21425;DHT22;10873;51.132;16.848;2023-02-23T10:59:27;24.30;45.60
21425;DHT22;10873;51.132;16.848;2023-02-23T11:01:53;24.30;45.70
21425;DHT22;10873;51.132;16.848;2023-02-23T11:04:22;24.30;45.80
21425;DHT22;10873;51.132;16.848;2023-02-23T11:06:49;24.30;46.00
21425;DHT22;10873;51.132;16.848;2023-02-23T11:09:23;24.40;46.10
21425;DHT22;10873;51.132;16.848;2023-02-23T11:11:56;24.40;46.20
21425;DHT22;10873;51.132;16.848;2023-02-23T11:14:25;24.40;46.10
21425;DHT22;10873;51.132;16.848;2023-02-23T11:16:54;24.30;45.90
21425;DHT22;10873;51.132;16.848;2023-02-23T11:19:24;24.20;46.40
21425;DHT22;10873;51.132;16.848;2023-02-23T11:21:51;24.00;46.20
21425;DHT22;10873;51.132;16.848;2023-02-23T11:24:21;23.90;46.80
21425;DHT22;10873;51.132;16.848;2023-02-23T11:26:51;23.80;47.00
21425;DHT22;10873;51.132;16.848;2023-02-23T11:29:23;23.70;47.20
21425;DHT22;10873;51.132;16.848;2023-02-23T11:31:54;23.60;47.50
21425;DHT22;10873;51.132;16.848;2023-02-23T11:34:27;23.50;47.40
21425;DHT22;10873;51.132;16.848;2023-02-23T11:36:59;23.40;47.50
21425;DHT22;10873;51.132;16.848;2023-02-23T11:39:26;23.30;47.70
21425;DHT22;10873;51.132;16.848;2023-02-23T11:42:15;23.20;47.80
21425;DHT22;10873;51.132;16.848;2023-02-23T11:44:42;23.10;47.70
21425;DHT22;10873;51.132;16.848;2023-02-23T11:47:18;23.10;47.80
21425;DHT22;10873;51.132;16.848;2023-02-23T11:49:47;23.00;47.90
21425;DHT22;10873;51.132;16.848;2023-02-23T11:52:15;22.90;48.20
21425;DHT22;10873;51.132;16.848;2023-02-23T11:54:49;22.80;48.30
21425;DHT22;10873;51.132;16.848;2023-02-23T11:57:20;22.80;48.70
21425;DHT22;10873;51.132;16.848;2023-02-23T11:59:47;22.80;48.90
21425;DHT22;10873;51.132;16.848;2023-02-23T12:02:21;22.70;49.10
21425;DHT22;10873;51.132;16.848;2023-02-23T12:04:49;22.70;49.10
21425;DHT22;10873;51.132;16.848;2023-02-23T12:07:25;22.60;49.50
21425;DHT22;10873;51.132;16.848;2023-02-23T12:09:59;22.60;49.60
21425;DHT22;10873;51.132;16.848;2023-02-23T12:12:27;22.60;50.00
21425;DHT22;10873;51.132;16.848;2023-02-23T12:14:58;22.50;49.90
21425;DHT22;10873;51.132;16.848;2023-02-23T12:17:30;22.50;50.00
21425;DHT22;10873;51.132;16.848;2023-02-23T12:20:02;22.50;49.90
21425;DHT22;10873;51.132;16.848;2023-02-23T12:22:33;22.40;50.00
21425;DHT22;10873;51.132;16.848;2023-02-23T12:25:04;22.40;49.80
21425;DHT22;10873;51.132;16.848;2023-02-23T12:27:36;22.40;49.90
21425;DHT22;10873;51.132;16.848;2023-02-23T12:30:13;22.40;50.00
21425;DHT22;10873;51.132;16.848;2023-02-23T12:32:46;22.30;50.00
21425;DHT22;10873;51.132;16.848;2023-02-23T12:35:18;22.30;50.10
21425;DHT22;10873;51.132;16.848;2023-02-23T12:37:49;22.30;50.10
21425;DHT22;10873;51.132;16.848;2023-02-23T12:40:21;22.20;50.00
21425;DHT22;10873;51.132;16.848;2023-02-23T12:42:57;22.20;50.10
21425;DHT22;10873;51.132;16.848;2023-02-23T12:45:28;22.10;50.20
21425;DHT22;10873;51.132;16.848;2023-02-23T12:48:05;22.10;50.30
21425;DHT22;10873;51.132;16.848;2023-02-23T12:50:37;22.00;50.50
21425;DHT22;10873;51.132;16.848;2023-02-23T12:53:11;22.00;50.80
21425;DHT22;10873;51.132;16.848;2023-02-23T12:55:54;21.90;50.80
21425;DHT22;10873;51.132;16.848;2023-02-23T12:58:23;21.90;50.90
21425;DHT22;10873;51.132;16.848;2023-02-23T13:00:56;21.90;50.90
21425;DHT22;10873;51.132;16.848;2023-02-23T13:03:39;21.90;51.00
21425;DHT22;10873;51.132;16.848;2023-02-23T13:06:11;21.80;51.00
21425;DHT22;10873;51.132;16.848;2023-02-23T13:08:55;21.80;51.20
21425;DHT22;10873;51.132;16.848;2023-02-23T13:11:38;21.80;51.30
21425;DHT22;10873;51.132;16.848;2023-02-23T13:14:11;21.70;51.40
21425;DHT22;10873;51.132;16.848;2023-02-23T13:16:44;21.70;51.50
21425;DHT22;10873;51.132;16.848;2023-02-23T13:19:17;21.70;51.60
21425;DHT22;10873;51.132;16.848;2023-02-23T13:21:51;21.70;51.70
21425;DHT22;10873;51.132;16.848;2023-02-23T13:24:22;21.70;51.80
21425;DHT22;10873;51.132;16.848;2023-02-23T13:26:52;21.60;51.90
21425;DHT22;10873;51.132;16.848;2023-02-23T13:29:30;21.60;52.00
21425;DHT22;10873;51.132;16.848;2023-02-23T13:32:00;21.60;52.10
21425;DHT22;10873;51.132;16.848;2023-02-23T13:34:31;21.60;52.00
21425;DHT22;10873;51.132;16.848;2023-02-23T13:37:01;21.60;52.30
21425;DHT22;10873;51.132;16.848;2023-02-23T13:39:47;21.60;52.30
21425;DHT22;10873;51.132;16.848;2023-02-23T13:42:28;21.60;52.40
21425;DHT22;10873;51.132;16.848;2023-02-23T13:45:08;21.60;52.60
21425;DHT22;10873;51.132;16.848;2023-02-23T13:47:43;21.50;52.70
21425;DHT22;10873;51.132;16.848;2023-02-23T13:50:20;21.50;52.70
21425;DHT22;10873;51.132;16.848;2023-02-23T13:52:50;21.50;53.60
21425;DHT22;10873;51.132;16.848;2023-02-23T13:55:50;21.40;53.00
21425;DHT22;10873;51.132;16.848;2023-02-23T13:58:22;21.50;53.10
21425;DHT22;10873;51.132;16.848;2023-02-23T14:01:04;21.40;53.20
21425;DHT22;10873;51.132;16.848;2023-02-23T14:03:32;21.40;53.30
21425;DHT22;10873;51.132;16.848;2023-02-23T14:06:03;21.40;53.40
21425;DHT22;10873;51.132;16.848;2023-02-23T14:08:32;21.40;53.60
21425;DHT22;10873;51.132;16.848;2023-02-23T14:11:00;21.40;53.50
21425;DHT22;10873;51.132;16.848;2023-02-23T14:13:30;21.40;53.70
21425;DHT22;10873;51.132;16.848;2023-02-23T14:16:14;21.40;53.70
21425;DHT22;10873;51.132;16.848;2023-02-23T14:18:53;21.40;53.80
21425;DHT22;10873;51.132;16.848;2023-02-23T14:21:27;21.50;53.80
21425;DHT22;10873;51.132;16.848;2023-02-23T14:24:03;21.50;53.80
21425;DHT22;10873;51.132;16.848;2023-02-23T14:26:39;21.50;53.90
21425;DHT22;10873;51.132;16.848;2023-02-23T14:29:26;21.60;54.50
21425;DHT22;10873;51.132;16.848;2023-02-23T14:31:58;21.60;54.00
21425;DHT22;10873;51.132;16.848;2023-02-23T14:34:43;21.60;54.00
21425;DHT22;10873;51.132;16.848;2023-02-23T14:37:25;21.70;54.10
21425;DHT22;10873;51.132;16.848;2023-02-23T14:39:54;21.70;54.00
21425;DHT22;10873;51.132;16.848;2023-02-23T14:42:23;21.80;54.10
21425;DHT22;10873;51.132;16.848;2023-02-23T14:44:51;21.80;54.00
21425;DHT22;10873;51.132;16.848;2023-02-23T14:47:20;21.90;54.10
21425;DHT22;10873;51.132;16.848;2023-02-23T14:49:49;22.00;54.10
21425;DHT22;10873;51.132;16.848;2023-02-23T14:52:20;22.10;54.10
21425;DHT22;10873;51.132;16.848;2023-02-23T14:54:47;22.10;54.00
21425;DHT22;10873;51.132;16.848;2023-02-23T14:57:18;22.20;54.00
21425;DHT22;10873;51.132;16.848;2023-02-23T14:59:50;22.30;53.90
21425;DHT22;10873;51.132;16.848;2023-02-23T15:02:18;22.30;53.80
21425;DHT22;10873;51.132;16.848;2023-02-23T15:04:45;22.40;53.80
21425;DHT22;10873;51.132;16.848;2023-02-23T15:07:15;22.40;53.80
21425;DHT22;10873;51.132;16.848;2023-02-23T15:09:46;22.40;53.70
21425;DHT22;10873;51.132;16.848;2023-02-23T15:12:14;22.50;53.80
21425;DHT22;10873;51.132;16.848;2023-02-23T15:14:42;22.50;53.60
21425;DHT22;10873;51.132;16.848;2023-02-23T15:17:14;22.60;53.50
21425;DHT22;10873;51.132;16.848;2023-02-23T15:19:42;22.60;53.50
21425;DHT22;10873;51.132;16.848;2023-02-23T15:22:18;22.60;53.40
21425;DHT22;10873;51.132;16.848;2023-02-23T15:24:48;22.70;53.40
21425;DHT22;10873;51.132;16.848;2023-02-23T15:27:16;22.70;53.50
21425;DHT22;10873;51.132;16.848;2023-02-23T15:29:43;22.70;53.60
21425;DHT22;10873;51.132;16.848;2023-02-23T15:32:11;22.70;53.70
21425;DHT22;10873;51.132;16.848;2023-02-23T15:34:39;22.70;53.70
21425;DHT22;10873;51.132;16.848;2023-02-23T15:37:10;22.80;53.80
21425;DHT22;10873;51.132;16.848;2023-02-23T15:39:42;22.80;53.80
21425;DHT22;10873;51.132;16.848;2023-02-23T15:42:15;22.80;53.60
21425;DHT22;10873;51.132;16.848;2023-02-23T15:44:42;22.80;53.40
21425;DHT22;10873;51.132;16.848;2023-02-23T15:47:14;22.80;53.10
21425;DHT22;10873;51.132;16.848;2023-02-23T15:49:43;22.80;53.00